createdAt,value
2019-02-08T00:00:22.636Z,1.54
2019-02-08T00:01:22.573Z,1.58
2019-02-08T00:02:23.131Z,1.55
2019-02-08T00:03:23.572Z,1.54
2019-02-08T00:04:23.168Z,1.48
2019-02-08T00:05:22.309Z,1.48
2019-02-08T00:06:23.038Z,1.54
2019-02-08T00:07:34.306Z,1.45
2019-02-08T00:08:33.553Z,1.54
2019-02-08T00:09:22.561Z,1.58
2019-02-08T00:10:25.403Z,1.52
2019-02-08T00:11:22.357Z,1.55
2019-02-08T00:12:22.235Z,1.63
2019-02-08T00:13:25.119Z,1.55
2019-02-08T00:14:22.158Z,1.55
2019-02-08T00:15:23.136Z,1.52
2019-02-08T00:16:22.158Z,1.51
2019-02-08T00:17:22.098Z,1.55
2019-02-08T00:18:23.628Z,1.59
2019-02-08T00:19:22.098Z,1.55
2019-02-08T00:20:22.666Z,1.55
2019-02-08T00:21:32.671Z,1.59
2019-02-08T00:22:22.195Z,1.54
2019-02-08T00:24:42.304Z,1.62
2019-02-08T00:25:51.650Z,1.59
2019-02-08T00:26:41.554Z,1.60
2019-02-08T00:27:42.639Z,1.65
2019-02-08T00:28:51.479Z,1.60
2019-02-08T00:29:41.490Z,1.60
2019-02-08T00:30:51.017Z,1.62
2019-02-08T00:31:51.091Z,1.65
2019-02-08T00:32:42.189Z,1.66
2019-02-08T00:33:56.888Z,1.72
2019-02-08T00:34:51.864Z,1.79
2019-02-08T00:35:42.371Z,1.76
2019-02-08T00:36:41.453Z,1.77
2019-02-08T00:37:53.284Z,1.69
2019-02-08T00:38:41.643Z,1.70
2019-02-08T00:39:41.390Z,1.79
2019-02-08T00:40:41.493Z,1.69
2019-02-08T00:41:42.251Z,1.66
2019-02-08T00:42:54.615Z,1.65
2019-02-08T00:43:52.821Z,1.70
2019-02-08T00:44:50.914Z,1.68
2019-02-08T00:45:41.405Z,1.69
2019-02-08T00:46:41.460Z,1.72
2019-02-08T00:47:41.376Z,1.63
2019-02-08T00:48:41.449Z,1.73
2019-02-08T00:49:41.228Z,1.69
2019-02-08T00:50:42.866Z,1.69
2019-02-08T00:51:42.827Z,1.68
2019-02-08T00:52:41.152Z,1.65
2019-02-08T00:53:41.155Z,1.65
2019-02-08T00:54:53.111Z,1.59
2019-02-08T00:55:50.738Z,1.66
2019-02-08T00:56:42.022Z,1.54
2019-02-08T00:57:41.264Z,1.65
2019-02-08T00:58:41.223Z,1.63
2019-02-08T01:00:02.872Z,1.59
2019-02-08T01:00:41.084Z,1.60
2019-02-08T01:01:42.063Z,1.63
2019-02-08T01:02:41.092Z,1.55
2019-02-08T01:03:41.383Z,1.63
2019-02-08T01:04:41.064Z,1.58
2019-02-08T01:07:04.822Z,1.68
2019-02-08T01:08:04.728Z,1.70
2019-02-08T01:09:06.519Z,1.68
2019-02-08T01:10:04.932Z,1.69
2019-02-08T01:11:15.312Z,1.65
2019-02-08T01:12:18.645Z,1.55
2019-02-08T01:13:14.467Z,1.59
2019-02-08T01:14:25.392Z,1.63
2019-02-08T01:15:05.004Z,1.70
2019-02-08T01:16:05.615Z,1.63
2019-02-08T01:17:05.083Z,1.70
2019-02-08T01:18:14.473Z,1.62
2019-02-08T01:19:04.627Z,1.69
2019-02-08T01:20:05.510Z,1.70
2019-02-08T01:21:04.417Z,1.68
2019-02-08T01:24:37.677Z,1.72
2019-02-08T01:25:36.896Z,1.65
2019-02-08T01:26:37.679Z,1.73
2019-02-08T01:27:47.666Z,1.70
2019-02-08T01:28:47.684Z,1.73
2019-02-08T01:29:57.900Z,1.72
2019-02-08T01:30:36.862Z,1.69
2019-02-08T01:32:49.704Z,1.73
2019-02-08T01:33:48.444Z,1.79
2019-02-08T01:34:49.233Z,1.72
2019-02-08T01:35:48.316Z,1.77
2019-02-08T01:36:48.362Z,1.70
2019-02-08T01:37:49.092Z,1.79
2019-02-08T01:38:48.221Z,1.69
2019-02-08T01:39:49.139Z,1.72
2019-02-08T01:40:49.097Z,1.66
2019-02-08T01:41:48.245Z,1.69
2019-02-08T01:42:48.282Z,1.68
2019-02-08T01:43:48.122Z,1.72
2019-02-08T01:45:09.243Z,1.73
2019-02-08T01:45:50.225Z,1.70
2019-02-08T01:46:48.076Z,1.69
2019-02-08T01:47:52.750Z,1.72
2019-02-08T01:48:48.107Z,1.69
2019-02-08T01:49:48.096Z,1.68
2019-02-08T01:50:48.033Z,1.66
2019-02-08T01:51:48.044Z,1.54
2019-02-08T01:52:49.051Z,1.59
2019-02-08T01:53:48.891Z,1.59
2019-02-08T01:54:48.998Z,1.60
2019-02-08T01:55:48.011Z,1.65
2019-02-08T01:56:48.036Z,1.62
2019-02-08T01:57:47.972Z,1.63
2019-02-08T01:58:48.169Z,1.66
2019-02-08T02:01:01.447Z,1.69
2019-02-08T02:02:01.317Z,1.68
2019-02-08T02:03:01.305Z,1.66
2019-02-08T02:04:01.171Z,1.69
2019-02-08T02:05:01.128Z,1.69
2019-02-08T02:06:01.073Z,1.58
2019-02-08T02:07:02.046Z,1.68
2019-02-08T02:08:02.075Z,1.65
2019-02-08T02:09:00.991Z,1.65
2019-02-08T02:10:01.522Z,1.60
2019-02-08T02:11:01.009Z,1.58
2019-02-08T02:12:01.021Z,1.55
2019-02-08T02:13:01.070Z,1.59
2019-02-08T02:14:00.933Z,1.59
2019-02-08T02:15:01.024Z,1.62
2019-02-08T02:16:01.010Z,1.58
2019-02-08T02:17:01.891Z,1.55
2019-02-08T02:18:01.934Z,1.65
2019-02-08T02:19:01.954Z,1.60
2019-02-08T02:20:00.894Z,1.59
2019-02-08T02:21:00.928Z,1.62
2019-02-08T02:22:01.925Z,1.58
2019-02-08T02:23:00.854Z,1.63
2019-02-08T02:24:00.832Z,1.65
2019-02-08T02:25:00.819Z,1.58
2019-02-08T02:26:00.838Z,1.55
2019-02-08T02:27:00.921Z,1.55
2019-02-08T02:28:01.861Z,1.65
2019-02-08T02:29:04.583Z,1.55
2019-02-08T02:33:04.591Z,1.55
2019-02-08T02:33:39.733Z,1.54
2019-02-08T02:34:49.159Z,1.59
2019-02-08T02:37:42.295Z,1.63
2019-02-08T02:38:41.958Z,1.66
2019-02-08T02:39:43.019Z,1.72
2019-02-08T02:40:41.878Z,1.72
2019-02-08T02:41:41.818Z,1.66
2019-02-08T02:45:49.332Z,1.68
2019-02-08T02:50:29.827Z,1.69
2019-02-08T02:51:29.736Z,1.72
2019-02-08T02:53:50.582Z,1.87
2019-02-08T02:54:49.583Z,1.76
2019-02-08T02:55:51.000Z,1.79
2019-02-08T02:56:49.288Z,1.79
2019-02-08T02:57:49.279Z,1.73
2019-02-08T03:00:23.693Z,1.77
2019-02-08T03:01:23.562Z,1.83
2019-02-08T03:02:36.520Z,1.73
2019-02-08T03:03:23.633Z,1.69
2019-02-08T03:04:23.719Z,1.65
2019-02-08T03:05:24.649Z,1.77
2019-02-08T03:06:23.571Z,1.83
2019-02-08T03:07:23.464Z,1.83
2019-02-08T03:08:23.441Z,1.81
2019-02-08T03:09:23.414Z,1.80
2019-02-08T03:10:23.344Z,1.77
2019-02-08T03:11:23.298Z,1.81
2019-02-08T03:12:23.295Z,1.84
2019-02-08T03:13:23.348Z,1.84
2019-02-08T03:15:36.571Z,1.93
2019-02-08T03:16:36.752Z,1.87
2019-02-08T03:17:36.474Z,2.03
2019-02-08T03:18:37.533Z,2.02
2019-02-08T03:19:37.291Z,2.03
2019-02-08T03:20:37.265Z,2.03
2019-02-08T03:21:36.247Z,2.10
2019-02-08T03:22:36.247Z,2.10
2019-02-08T03:23:36.198Z,2.05
2019-02-08T03:24:36.252Z,2.06
2019-02-08T03:25:36.193Z,2.07
2019-02-08T03:26:36.190Z,2.06
2019-02-08T03:27:36.187Z,2.03
2019-02-08T03:28:36.186Z,2.03
2019-02-08T03:30:50.563Z,2.12
2019-02-08T03:31:51.393Z,2.07
2019-02-08T03:32:51.318Z,2.10
2019-02-08T03:33:51.374Z,2.09
2019-02-08T03:34:50.367Z,2.06
2019-02-08T03:35:51.192Z,2.10
2019-02-08T03:36:51.435Z,2.12
2019-02-08T03:37:51.092Z,2.09
2019-02-08T03:38:50.302Z,2.10
2019-02-08T03:39:50.255Z,2.18
2019-02-08T03:40:50.341Z,2.14
2019-02-08T03:41:51.220Z,2.16
2019-02-08T03:42:50.263Z,2.17
2019-02-08T03:43:50.189Z,2.18
2019-02-08T03:44:50.188Z,2.17
2019-02-08T03:45:51.061Z,2.12
2019-02-08T03:46:50.195Z,2.10
2019-02-08T03:47:50.165Z,2.14
2019-02-08T03:48:50.163Z,2.12
2019-02-08T03:49:50.172Z,2.05
2019-02-08T03:50:50.176Z,2.05
2019-02-08T03:51:50.110Z,2.06
2019-02-08T03:52:50.627Z,2.00
2019-02-08T03:53:50.134Z,2.06
2019-02-08T03:54:50.084Z,2.05
2019-02-08T03:55:58.006Z,2.03
2019-02-08T03:56:50.083Z,2.09
2019-02-08T03:57:50.062Z,2.07
2019-02-08T03:58:50.203Z,2.06
2019-02-08T03:59:51.313Z,1.99
2019-02-08T04:00:50.037Z,2.02
2019-02-08T04:01:50.025Z,2.03
2019-02-08T04:02:49.997Z,2.03
2019-02-08T04:04:00.291Z,1.90
2019-02-08T04:04:50.123Z,1.90
2019-02-08T04:05:50.230Z,1.88
2019-02-08T04:08:04.544Z,1.95
2019-02-08T04:09:04.101Z,1.86
2019-02-08T04:10:03.657Z,1.76
2019-02-08T04:11:03.598Z,1.76
2019-02-08T04:12:04.539Z,1.84
2019-02-08T04:13:03.386Z,1.80
2019-02-08T04:15:14.920Z,1.73
2019-02-08T04:16:27.684Z,1.77
2019-02-08T04:17:15.059Z,1.70
2019-02-08T04:19:34.552Z,1.76
2019-02-08T04:20:34.551Z,1.77
2019-02-08T04:21:35.157Z,1.77
2019-02-08T04:22:34.305Z,1.68
2019-02-08T04:23:46.037Z,1.79
2019-02-08T04:24:34.424Z,1.66
2019-02-08T04:25:45.310Z,1.73
2019-02-08T04:26:45.318Z,1.73
2019-02-08T04:27:44.639Z,1.72
2019-02-08T04:28:46.186Z,1.66
2019-02-08T04:30:58.543Z,1.79
2019-02-08T04:31:52.408Z,1.73
2019-02-08T04:33:02.496Z,1.76
2019-02-08T04:35:06.234Z,1.72
2019-02-08T04:36:06.229Z,1.65
2019-02-08T04:37:06.071Z,1.73
2019-02-08T04:38:06.951Z,1.69
2019-02-08T04:39:05.952Z,1.73
2019-02-08T04:40:05.936Z,1.77
2019-02-08T04:41:05.907Z,1.69
2019-02-08T04:42:05.934Z,1.65
2019-02-08T04:44:49.457Z,1.72
2019-02-08T04:45:47.981Z,1.54
2019-02-08T04:48:04.169Z,1.66
2019-02-08T04:49:04.206Z,1.70
2019-02-08T04:51:17.433Z,1.60
2019-02-08T04:52:17.505Z,1.58
2019-02-08T04:53:27.299Z,1.55
2019-02-08T04:54:25.944Z,1.59
2019-02-08T04:55:17.449Z,1.62
2019-02-08T04:56:17.423Z,1.60
2019-02-08T04:57:18.220Z,1.58
2019-02-08T04:58:17.238Z,1.58
2019-02-08T04:59:27.027Z,1.65
2019-02-08T05:00:17.465Z,1.65
2019-02-08T05:01:17.358Z,1.65
2019-02-08T05:03:34.952Z,1.59
2019-02-08T05:04:34.957Z,1.52
2019-02-08T05:06:47.954Z,1.70
2019-02-08T05:07:47.885Z,1.69
2019-02-08T05:08:47.793Z,1.69
2019-02-08T05:11:00.149Z,1.73
2019-02-08T05:13:11.108Z,1.72
2019-02-08T05:14:11.040Z,1.86
2019-02-08T05:15:11.794Z,1.83
2019-02-08T05:16:33.602Z,1.87
2019-02-08T05:17:11.281Z,2.00
2019-02-08T05:18:11.037Z,2.02
2019-02-08T05:19:11.111Z,1.98
2019-02-08T05:20:20.787Z,1.93
2019-02-08T05:21:20.427Z,2.05
2019-02-08T05:22:11.095Z,2.06
2019-02-08T05:23:11.012Z,2.06
2019-02-08T05:24:11.303Z,2.02
2019-02-08T05:25:10.790Z,2.03
2019-02-08T05:26:11.759Z,2.09
2019-02-08T05:27:10.753Z,2.07
2019-02-08T05:28:10.784Z,2.06
2019-02-08T05:29:10.764Z,2.07
2019-02-08T05:32:04.254Z,2.05
2019-02-08T05:32:42.152Z,2.09
2019-02-08T05:33:41.190Z,2.06
2019-02-08T05:34:41.035Z,2.07
2019-02-08T05:35:41.032Z,2.02
2019-02-08T05:36:41.970Z,2.09
2019-02-08T05:37:41.053Z,2.10
2019-02-08T05:38:41.025Z,2.05
2019-02-08T05:39:40.977Z,2.07
2019-02-08T05:40:41.527Z,2.06
2019-02-08T05:41:40.933Z,2.09
2019-02-08T05:42:41.885Z,2.02
2019-02-08T05:43:40.972Z,2.06
2019-02-08T05:45:01.973Z,2.09
2019-02-08T05:45:40.904Z,2.09
2019-02-08T05:46:40.936Z,2.09
2019-02-08T05:47:40.929Z,2.05
2019-02-08T05:48:40.856Z,2.14
2019-02-08T05:49:40.860Z,2.07
2019-02-08T05:50:40.870Z,2.09
2019-02-08T05:51:40.801Z,2.10
2019-02-08T05:52:40.817Z,2.10
2019-02-08T05:53:40.833Z,2.07
2019-02-08T05:54:40.866Z,2.16
2019-02-08T05:55:40.792Z,1.99
2019-02-08T05:56:40.778Z,2.17
2019-02-08T05:57:40.784Z,2.06
2019-02-08T05:58:40.721Z,2.10
2019-02-08T05:59:40.756Z,2.06
2019-02-08T06:01:51.166Z,2.12
2019-02-08T06:02:51.216Z,2.07
2019-02-08T06:03:50.998Z,2.05
2019-02-08T06:04:51.195Z,2.06
2019-02-08T06:05:51.965Z,2.07
2019-02-08T06:06:50.947Z,2.05
2019-02-08T06:07:50.995Z,2.07
2019-02-08T06:08:50.907Z,2.06
2019-02-08T06:09:50.924Z,2.06
2019-02-08T06:10:50.879Z,2.05
2019-02-08T06:11:51.678Z,2.10
2019-02-08T06:12:50.869Z,2.16
2019-02-08T06:13:50.834Z,2.09
2019-02-08T06:14:50.848Z,2.05
2019-02-08T06:15:50.793Z,2.02
2019-02-08T06:16:50.793Z,2.07
2019-02-08T06:17:50.857Z,1.93
2019-02-08T06:18:50.787Z,2.06
2019-02-08T06:19:50.804Z,2.05
2019-02-08T06:20:50.801Z,2.07
2019-02-08T06:21:50.739Z,2.06
2019-02-08T06:22:50.753Z,2.02
2019-02-08T06:23:50.702Z,2.06
2019-02-08T06:24:50.729Z,1.95
2019-02-08T06:25:50.735Z,1.91
2019-02-08T06:26:50.713Z,1.88
2019-02-08T06:27:50.698Z,1.98
2019-02-08T06:28:50.672Z,1.90
2019-02-08T06:29:50.682Z,1.91
2019-02-08T06:30:50.631Z,1.98
2019-02-08T06:31:50.621Z,1.90
2019-02-08T06:32:50.681Z,1.88
2019-02-08T06:33:50.622Z,1.88
2019-02-08T06:34:50.590Z,1.90
2019-02-08T06:35:50.596Z,1.90
2019-02-08T06:36:50.585Z,1.98
2019-02-08T06:37:50.536Z,1.91
2019-02-08T06:38:50.616Z,1.84
2019-02-08T06:39:50.508Z,2.00
2019-02-08T06:40:50.552Z,1.93
2019-02-08T06:41:50.544Z,1.95
2019-02-08T06:42:50.506Z,1.84
2019-02-08T06:43:50.474Z,1.87
2019-02-08T06:44:50.502Z,1.86
2019-02-08T06:45:50.523Z,1.80
2019-02-08T06:46:50.466Z,1.83
2019-02-08T06:47:51.437Z,1.83
2019-02-08T06:48:50.436Z,1.79
2019-02-08T06:49:50.475Z,1.83
2019-02-08T06:50:50.434Z,1.73
2019-02-08T06:51:50.426Z,1.76
2019-02-08T06:52:50.416Z,1.72
2019-02-08T06:53:50.362Z,1.79
2019-02-08T06:54:50.369Z,1.76
2019-02-08T06:55:53.780Z,1.84
2019-02-08T06:56:50.406Z,1.84
2019-02-08T06:57:50.343Z,1.84
2019-02-08T06:58:50.358Z,1.83
2019-02-08T06:59:50.325Z,1.80
2019-02-08T07:00:50.327Z,1.76
2019-02-08T07:01:50.286Z,1.84
2019-02-08T07:02:50.297Z,1.76
2019-02-08T07:03:50.310Z,1.77
2019-02-08T07:04:50.269Z,1.76
2019-02-08T07:05:50.259Z,1.68
2019-02-08T07:06:50.246Z,1.76
2019-02-08T07:08:02.051Z,1.73
2019-02-08T07:08:50.527Z,1.81
2019-02-08T07:09:50.298Z,1.84
2019-02-08T07:10:50.351Z,1.83
2019-02-08T07:11:50.282Z,1.81
2019-02-08T07:12:50.211Z,1.95
2019-02-08T07:13:50.221Z,1.87
2019-02-08T07:14:50.119Z,2.02
2019-02-08T07:15:50.139Z,2.02
2019-02-08T07:16:51.122Z,2.02
2019-02-08T07:17:50.099Z,2.06
2019-02-08T07:18:50.088Z,2.02
2019-02-08T07:19:50.165Z,2.05
2019-02-08T07:20:50.083Z,2.05
2019-02-08T07:21:50.059Z,2.12
2019-02-08T07:22:50.037Z,2.14
2019-02-08T07:23:50.053Z,2.09
2019-02-08T07:24:50.045Z,2.12
2019-02-08T07:25:50.050Z,2.21
2019-02-08T07:26:50.048Z,2.12
2019-02-08T07:27:50.036Z,2.16
2019-02-08T07:28:49.989Z,2.17
2019-02-08T07:29:50.692Z,2.21
2019-02-08T07:30:49.997Z,2.14
2019-02-08T07:31:49.989Z,2.09
2019-02-08T07:32:51.528Z,2.16
2019-02-08T07:33:49.918Z,2.05
2019-02-08T07:34:49.906Z,2.17
2019-02-08T07:35:49.937Z,2.10
2019-02-08T07:36:50.614Z,2.20
2019-02-08T07:37:49.924Z,2.07
2019-02-08T07:38:49.908Z,2.16
2019-02-08T07:39:49.834Z,2.20
2019-02-08T07:40:49.843Z,2.12
2019-02-08T07:41:49.849Z,2.17
2019-02-08T07:42:49.895Z,2.17
2019-02-08T07:43:49.898Z,2.23
2019-02-08T07:44:49.786Z,2.25
2019-02-08T07:45:49.761Z,2.25
2019-02-08T07:46:50.815Z,2.31
2019-02-08T07:47:49.802Z,2.27
2019-02-08T07:48:49.753Z,2.23
2019-02-08T07:49:50.248Z,2.23
2019-02-08T07:50:49.745Z,2.42
2019-02-08T07:51:49.727Z,2.45
2019-02-08T07:52:49.730Z,2.38
2019-02-08T07:53:49.735Z,2.43
2019-02-08T07:54:50.715Z,2.52
2019-02-08T07:55:49.657Z,2.56
2019-02-08T07:56:49.675Z,2.49
2019-02-08T07:57:49.636Z,2.61
2019-02-08T07:58:49.670Z,2.63
2019-02-08T07:59:49.652Z,2.60
2019-02-08T08:00:49.669Z,2.61
2019-02-08T08:01:49.626Z,2.63
2019-02-08T08:02:49.584Z,2.59
2019-02-08T08:03:49.589Z,2.72
2019-02-08T08:04:49.572Z,2.75
2019-02-08T08:05:49.569Z,2.77
2019-02-08T08:06:49.598Z,2.69
2019-02-08T08:07:49.515Z,2.78
2019-02-08T08:08:49.524Z,2.87
2019-02-08T08:09:49.526Z,2.89
2019-02-08T08:10:49.493Z,2.89
2019-02-08T08:11:49.479Z,2.89
2019-02-08T08:12:49.541Z,2.87
2019-02-08T08:13:49.463Z,2.87
2019-02-08T08:15:25.317Z,2.85
2019-02-08T08:15:49.426Z,2.89
2019-02-08T08:16:49.443Z,2.84
2019-02-08T08:17:49.408Z,2.92
2019-02-08T08:18:49.444Z,2.89
2019-02-08T08:19:49.375Z,2.85
2019-02-08T08:20:49.366Z,2.85
2019-02-08T08:21:49.365Z,2.89
2019-02-08T08:22:49.374Z,2.90
2019-02-08T08:23:49.347Z,2.89
2019-02-08T08:24:49.371Z,2.97
2019-02-08T08:25:49.358Z,2.87
2019-02-08T08:26:49.355Z,2.85
2019-02-08T08:27:49.305Z,2.87
2019-02-08T08:28:49.329Z,2.89
2019-02-08T08:31:04.249Z,2.95
2019-02-08T08:32:04.215Z,2.95
2019-02-08T08:33:04.244Z,3.00
2019-02-08T08:34:04.096Z,3.02
2019-02-08T08:35:04.067Z,3.08
2019-02-08T08:36:04.054Z,3.17
2019-02-08T08:37:04.055Z,3.06
2019-02-08T08:38:04.026Z,3.03
2019-02-08T08:39:03.997Z,3.11
2019-02-08T08:40:04.005Z,3.18
2019-02-08T08:41:03.988Z,3.15
2019-02-08T08:42:03.954Z,3.20
2019-02-08T08:43:03.958Z,3.23
2019-02-08T08:44:03.949Z,3.26
2019-02-08T08:45:30.401Z,3.32
2019-02-08T08:46:03.916Z,3.28
2019-02-08T08:47:03.913Z,3.26
2019-02-08T08:48:03.909Z,3.28
2019-02-08T08:49:03.886Z,3.20
2019-02-08T08:50:03.894Z,3.26
2019-02-08T08:51:04.718Z,3.21
2019-02-08T08:52:03.857Z,3.28
2019-02-08T08:53:03.852Z,3.24
2019-02-08T08:54:03.852Z,3.28
2019-02-08T08:55:03.815Z,3.28
2019-02-08T08:56:04.736Z,3.28
2019-02-08T08:57:03.825Z,3.28
2019-02-08T08:58:03.781Z,3.26
2019-02-08T08:59:03.778Z,3.32
2019-02-08T09:00:29.813Z,3.42
2019-02-08T09:01:03.789Z,3.45
2019-02-08T09:02:03.779Z,3.40
2019-02-08T09:03:03.721Z,3.61
2019-02-08T09:04:03.703Z,3.65
2019-02-08T09:05:03.700Z,3.76
2019-02-08T09:06:08.769Z,3.75
2019-02-08T09:07:04.681Z,3.83
2019-02-08T09:08:03.741Z,3.87
2019-02-08T09:09:03.668Z,3.75
2019-02-08T09:10:03.669Z,3.75
2019-02-08T09:11:03.633Z,3.75
2019-02-08T09:12:03.654Z,3.75
2019-02-08T09:13:03.630Z,3.79
2019-02-08T09:14:03.600Z,3.75
2019-02-08T09:15:04.152Z,3.80
2019-02-08T09:16:03.597Z,3.76
2019-02-08T09:17:03.553Z,3.78
2019-02-08T09:18:03.570Z,3.75
2019-02-08T09:19:03.542Z,3.72
2019-02-08T09:20:03.568Z,3.72
2019-02-08T09:21:03.515Z,3.65
2019-02-08T09:22:03.502Z,3.76
2019-02-08T09:23:03.483Z,3.62
2019-02-08T09:24:03.473Z,3.66
2019-02-08T09:25:03.504Z,3.69
2019-02-08T09:26:03.483Z,3.69
2019-02-08T09:27:03.436Z,3.70
2019-02-08T09:28:03.441Z,3.76
2019-02-08T09:29:03.410Z,3.68
2019-02-08T09:30:03.433Z,3.72
2019-02-08T09:31:03.418Z,3.70
2019-02-08T09:32:03.382Z,3.72
2019-02-08T09:33:03.399Z,3.69
2019-02-08T09:34:03.372Z,3.75
2019-02-08T09:35:03.374Z,3.70
2019-02-08T09:36:03.369Z,3.73
2019-02-08T09:37:03.324Z,3.78
2019-02-08T09:38:03.317Z,3.69
2019-02-08T09:39:03.317Z,3.75
2019-02-08T09:40:03.324Z,3.75
2019-02-08T09:41:03.275Z,3.76
2019-02-08T09:42:03.269Z,3.75
2019-02-08T09:43:03.746Z,3.79
2019-02-08T09:44:03.254Z,3.86
2019-02-08T09:45:14.802Z,3.80
2019-02-08T09:46:03.223Z,3.83
2019-02-08T09:47:03.217Z,3.78
2019-02-08T09:48:03.222Z,3.78
2019-02-08T09:49:03.209Z,3.79
2019-02-08T09:50:03.190Z,3.78
2019-02-08T09:51:03.169Z,3.83
2019-02-08T09:52:03.155Z,3.78
2019-02-08T09:53:03.220Z,3.86
2019-02-08T09:54:03.133Z,3.80
2019-02-08T09:55:03.122Z,3.88
2019-02-08T09:56:03.144Z,3.80
2019-02-08T09:57:03.095Z,3.86
2019-02-08T09:58:03.114Z,3.79
2019-02-08T09:59:03.073Z,3.88
2019-02-08T10:00:03.092Z,3.79
2019-02-08T10:01:03.057Z,3.80
2019-02-08T10:02:03.716Z,3.86
2019-02-08T10:03:03.025Z,3.88
2019-02-08T10:04:03.028Z,3.91
2019-02-08T10:05:03.035Z,4.00
2019-02-08T10:06:02.999Z,3.90
2019-02-08T10:07:02.992Z,3.78
2019-02-08T10:08:03.014Z,3.88
2019-02-08T10:09:03.699Z,3.98
2019-02-08T10:10:02.996Z,3.90
2019-02-08T10:11:02.941Z,3.91
2019-02-08T10:12:02.931Z,3.91
2019-02-08T10:13:02.949Z,3.94
2019-02-08T10:14:02.904Z,4.00
2019-02-08T10:15:13.782Z,3.98
2019-02-08T10:16:02.880Z,3.94
2019-02-08T10:17:02.890Z,3.97
2019-02-08T10:18:02.863Z,3.98
2019-02-08T10:19:02.861Z,3.79
2019-02-08T10:20:02.840Z,3.93
2019-02-08T10:21:02.855Z,3.93
2019-02-08T10:22:02.857Z,3.90
2019-02-08T10:23:02.818Z,3.91
2019-02-08T10:24:02.814Z,3.86
2019-02-08T10:25:02.788Z,3.86
2019-02-08T10:26:05.448Z,3.94
2019-02-08T10:27:02.764Z,3.98
2019-02-08T10:28:02.771Z,3.90
2019-02-08T10:29:02.746Z,3.91
2019-02-08T10:30:02.730Z,3.98
2019-02-08T10:31:02.732Z,4.00
2019-02-08T10:32:02.736Z,3.96
2019-02-08T10:33:02.701Z,4.00
2019-02-08T10:34:02.680Z,4.11
2019-02-08T10:35:02.673Z,4.14
2019-02-08T10:36:02.664Z,4.05
2019-02-08T10:37:02.644Z,4.08
2019-02-08T10:38:02.659Z,4.14
2019-02-08T10:39:02.702Z,4.12
2019-02-08T10:40:02.613Z,4.15
2019-02-08T10:41:02.600Z,4.16
2019-02-08T10:42:02.584Z,4.22
2019-02-08T10:43:02.576Z,4.30
2019-02-08T10:44:02.576Z,4.33
2019-02-08T10:45:02.551Z,4.24
2019-02-08T10:46:02.550Z,4.30
2019-02-08T10:47:02.552Z,4.26
2019-02-08T10:48:02.524Z,4.26
2019-02-08T10:49:03.160Z,4.33
2019-02-08T10:50:02.516Z,4.36
2019-02-08T10:51:02.531Z,4.36
2019-02-08T10:52:02.480Z,4.41
2019-02-08T10:53:02.485Z,4.36
2019-02-08T10:54:02.453Z,4.40
2019-02-08T10:55:02.465Z,4.33
2019-02-08T10:56:02.437Z,4.30
2019-02-08T10:57:02.431Z,4.36
2019-02-08T10:58:02.418Z,4.47
2019-02-08T10:59:02.450Z,4.37
2019-02-08T11:00:02.415Z,4.36
2019-02-08T11:01:02.368Z,4.34
2019-02-08T11:02:02.374Z,4.30
2019-02-08T11:03:02.341Z,4.34
2019-02-08T11:04:02.338Z,4.34
2019-02-08T11:05:02.385Z,4.30
2019-02-08T11:06:02.314Z,4.42
2019-02-08T11:07:02.298Z,4.40
2019-02-08T11:08:02.287Z,4.33
2019-02-08T11:09:02.279Z,4.37
2019-02-08T11:10:02.285Z,4.44
2019-02-08T11:11:02.427Z,4.44
2019-02-08T11:12:02.248Z,4.37
2019-02-08T11:13:02.263Z,4.42
2019-02-08T11:14:02.226Z,4.41
2019-02-08T11:16:13.486Z,4.41
2019-02-08T11:17:13.515Z,4.45
2019-02-08T11:18:13.405Z,4.44
2019-02-08T11:19:13.463Z,4.47
2019-02-08T11:20:13.336Z,4.45
2019-02-08T11:21:14.128Z,4.48
2019-02-08T11:22:14.202Z,4.54
2019-02-08T11:23:13.284Z,4.51
2019-02-08T11:24:13.274Z,4.47
2019-02-08T11:25:13.276Z,4.66
2019-02-08T11:26:13.263Z,4.59
2019-02-08T11:27:13.251Z,4.62
2019-02-08T11:28:13.222Z,4.66
2019-02-08T11:29:13.215Z,4.77
2019-02-08T11:30:20.278Z,4.75
2019-02-08T11:31:13.186Z,4.78
2019-02-08T11:32:13.192Z,4.84
2019-02-08T11:33:13.164Z,4.94
2019-02-08T11:34:13.155Z,4.94
2019-02-08T11:35:13.158Z,5.03
2019-02-08T11:36:13.146Z,5.03
2019-02-08T11:37:13.148Z,5.07
2019-02-08T11:38:13.126Z,5.04
2019-02-08T11:39:13.101Z,5.09
2019-02-08T11:40:13.089Z,5.22
2019-02-08T11:41:13.072Z,5.15
2019-02-08T11:42:13.073Z,5.31
2019-02-08T11:43:13.072Z,5.17
2019-02-08T11:44:13.043Z,5.22
2019-02-08T11:45:13.030Z,5.28
2019-02-08T11:46:13.018Z,5.33
2019-02-08T11:47:13.003Z,5.25
2019-02-08T11:48:13.040Z,5.38
2019-02-08T11:49:12.979Z,5.13
2019-02-08T11:50:12.973Z,5.12
2019-02-08T11:51:12.959Z,5.24
2019-02-08T11:52:12.950Z,5.24
2019-02-08T11:53:12.939Z,5.33
2019-02-08T11:54:13.623Z,5.30
2019-02-08T11:55:12.933Z,5.27
2019-02-08T11:56:12.903Z,5.35
2019-02-08T11:57:12.901Z,5.35
2019-02-08T11:58:12.879Z,5.46
2019-02-08T11:59:12.876Z,5.30
2019-02-08T12:00:12.877Z,5.36
2019-02-08T12:01:12.851Z,5.31
2019-02-08T12:02:12.840Z,5.28
2019-02-08T12:03:12.827Z,5.30
2019-02-08T12:04:12.832Z,5.43
2019-02-08T12:05:12.827Z,5.42
2019-02-08T12:06:13.622Z,5.38
2019-02-08T12:07:12.783Z,5.51
2019-02-08T12:08:12.772Z,5.54
2019-02-08T12:09:12.755Z,5.48
2019-02-08T12:10:12.762Z,5.48
2019-02-08T12:11:12.740Z,5.51
2019-02-08T12:12:12.745Z,5.58
2019-02-08T12:13:12.724Z,5.53
2019-02-08T12:14:12.701Z,5.58
2019-02-08T12:15:12.731Z,5.61
2019-02-08T12:16:12.691Z,5.54
2019-02-08T12:17:12.670Z,5.65
2019-02-08T12:18:12.689Z,5.75
2019-02-08T12:19:12.654Z,5.74
2019-02-08T12:20:12.651Z,5.75
2019-02-08T12:21:12.630Z,5.76
2019-02-08T12:22:12.674Z,5.71
2019-02-08T12:23:12.598Z,5.85
2019-02-08T12:24:12.617Z,5.79
2019-02-08T12:25:12.573Z,5.91
2019-02-08T12:26:12.597Z,5.75
2019-02-08T12:27:12.557Z,5.79
2019-02-08T12:28:12.557Z,5.79
2019-02-08T12:29:12.534Z,5.86
2019-02-08T12:30:13.996Z,5.82
2019-02-08T12:31:12.530Z,5.83
2019-02-08T12:32:13.126Z,5.86
2019-02-08T12:33:12.487Z,5.72
2019-02-08T12:34:12.472Z,5.82
2019-02-08T12:35:12.467Z,5.94
2019-02-08T12:36:12.471Z,5.79
2019-02-08T12:37:12.453Z,5.82
2019-02-08T12:38:12.435Z,5.91
2019-02-08T12:39:12.416Z,5.91
2019-02-08T12:40:12.406Z,5.90
2019-02-08T12:41:13.044Z,5.93
2019-02-08T12:42:12.412Z,5.81
2019-02-08T12:43:12.387Z,5.79
2019-02-08T12:44:12.362Z,5.85
2019-02-08T12:45:12.362Z,5.71
2019-02-08T12:46:12.329Z,5.78
2019-02-08T12:47:12.328Z,5.81
2019-02-08T12:48:12.434Z,5.79
2019-02-08T12:49:12.322Z,5.79
2019-02-08T12:50:12.293Z,5.78
2019-02-08T12:51:12.281Z,5.81
2019-02-08T12:52:12.262Z,5.81
2019-02-08T12:53:12.291Z,5.90
2019-02-08T12:54:12.247Z,5.89
2019-02-08T12:55:13.181Z,5.93
2019-02-08T12:56:12.234Z,5.89
2019-02-08T12:57:12.207Z,5.89
2019-02-08T12:58:12.211Z,5.85
2019-02-08T12:59:12.260Z,5.93
2019-02-08T13:00:12.182Z,5.96
2019-02-08T13:01:12.181Z,6.01
2019-02-08T13:02:12.152Z,5.93
2019-02-08T13:03:12.150Z,5.94
2019-02-08T13:04:12.154Z,5.96
2019-02-08T13:05:12.128Z,6.09
2019-02-08T13:06:12.109Z,6.03
2019-02-08T13:07:12.120Z,6.09
2019-02-08T13:08:12.078Z,6.00
2019-02-08T13:09:12.115Z,5.90
2019-02-08T13:10:12.066Z,5.94
2019-02-08T13:11:12.047Z,6.03
2019-02-08T13:12:12.044Z,5.91
2019-02-08T13:13:12.044Z,5.93
2019-02-08T13:14:12.017Z,5.97
2019-02-08T13:15:12.028Z,5.91
2019-02-08T13:16:11.999Z,5.94
2019-02-08T13:17:11.979Z,5.97
2019-02-08T13:18:11.970Z,5.93
2019-02-08T13:19:11.972Z,5.93
2019-02-08T13:20:11.998Z,5.83
2019-02-08T13:21:11.946Z,5.89
2019-02-08T13:22:11.928Z,5.79
2019-02-08T13:23:11.917Z,5.89
2019-02-08T13:24:11.911Z,5.76
2019-02-08T13:25:11.909Z,5.76
2019-02-08T13:26:11.900Z,5.76
2019-02-08T13:27:11.870Z,5.86
2019-02-08T13:28:11.871Z,5.71
2019-02-08T13:29:11.857Z,5.67
2019-02-08T13:30:11.834Z,5.58
2019-02-08T13:31:11.887Z,5.54
2019-02-08T13:32:11.815Z,5.64
2019-02-08T13:33:11.806Z,5.67
2019-02-08T13:34:11.795Z,5.63
2019-02-08T13:35:11.782Z,5.63
2019-02-08T13:36:11.777Z,5.63
2019-02-08T13:37:11.789Z,5.61
2019-02-08T13:38:11.754Z,5.51
2019-02-08T13:39:11.748Z,5.38
2019-02-08T13:40:11.728Z,5.42
2019-02-08T13:41:11.725Z,5.31
2019-02-08T13:42:11.752Z,5.49
2019-02-08T13:43:11.711Z,5.35
2019-02-08T13:44:11.682Z,5.35
2019-02-08T13:46:05.649Z,5.38
2019-02-08T13:47:05.528Z,5.18
2019-02-08T13:48:05.745Z,5.17
2019-02-08T13:49:05.520Z,5.15
2019-02-08T13:50:05.426Z,5.10
2019-02-08T13:51:05.406Z,5.13
2019-02-08T13:52:05.458Z,5.10
2019-02-08T13:53:05.422Z,4.97
2019-02-08T13:54:05.421Z,4.91
2019-02-08T13:55:05.422Z,4.94
2019-02-08T13:56:05.435Z,4.85
2019-02-08T13:57:05.337Z,4.77
2019-02-08T13:58:06.219Z,4.84
2019-02-08T13:59:05.352Z,4.85
2019-02-08T14:00:05.354Z,4.94
2019-02-08T14:01:05.333Z,4.78
2019-02-08T14:02:05.316Z,4.86
2019-02-08T14:03:05.279Z,4.72
2019-02-08T14:04:05.265Z,4.80